createdAt,value
2019-02-12T00:02:23.816Z,3.33
2019-02-12T00:05:26.969Z,3.31
2019-02-12T00:08:30.057Z,3.40
2019-02-12T00:11:33.159Z,3.42
2019-02-12T00:14:36.236Z,3.42
2019-02-12T00:17:39.318Z,3.36
2019-02-12T00:20:42.407Z,3.30
2019-02-12T00:23:45.509Z,3.22
2019-02-12T00:26:48.598Z,3.17
2019-02-12T00:29:51.705Z,3.10
2019-02-12T00:32:54.813Z,3.07
2019-02-12T00:35:57.906Z,3.02
2019-02-12T00:39:01.077Z,3.04
2019-02-12T00:42:04.167Z,3.06
2019-02-12T00:45:07.326Z,3.09
2019-02-12T00:48:10.452Z,3.07
2019-02-12T00:51:17.828Z,3.05
2019-02-12T00:54:16.645Z,3.03
2019-02-12T00:57:19.741Z,2.96
2019-02-12T01:00:22.827Z,2.90
2019-02-12T01:03:25.887Z,2.97
2019-02-12T01:06:28.939Z,2.91
2019-02-12T01:09:32.100Z,2.94
2019-02-12T01:12:35.199Z,2.95
2019-02-12T01:15:38.286Z,2.96
2019-02-12T01:18:41.979Z,2.93
2019-02-12T01:21:45.085Z,2.94
2019-02-12T01:24:48.210Z,3.00
2019-02-12T01:27:51.368Z,3.07
2019-02-12T01:30:55.491Z,3.11
2019-02-12T01:33:58.558Z,3.12
2019-02-12T01:37:01.712Z,3.01
2019-02-12T01:40:04.792Z,2.95
2019-02-12T01:43:08.018Z,2.83
2019-02-12T01:46:11.158Z,2.81
2019-02-12T01:49:14.228Z,2.77
2019-02-12T01:52:17.299Z,2.78
2019-02-12T01:55:20.430Z,2.68
2019-02-12T01:58:23.548Z,2.61
2019-02-12T02:01:26.594Z,2.62
2019-02-12T02:04:29.701Z,2.63
2019-02-12T02:07:32.793Z,2.63
2019-02-12T02:10:35.875Z,2.51
2019-02-12T02:13:39.078Z,2.45
2019-02-12T02:16:42.175Z,2.26
2019-02-12T02:19:45.254Z,2.23
2019-02-12T02:22:48.344Z,2.25
2019-02-12T02:25:51.439Z,2.31
2019-02-12T02:28:54.518Z,2.36
2019-02-12T02:31:57.625Z,2.24
2019-02-12T02:35:00.712Z,2.30
2019-02-12T02:38:03.814Z,2.35
2019-02-12T02:41:06.900Z,2.39
2019-02-12T02:44:10.018Z,2.35
2019-02-12T02:47:13.096Z,2.23
2019-02-12T02:50:16.186Z,2.27
2019-02-12T02:53:19.267Z,2.32
2019-02-12T02:56:22.356Z,2.35
2019-02-12T02:59:25.478Z,2.32
2019-02-12T03:02:28.549Z,2.32
2019-02-12T03:05:31.648Z,2.37
2019-02-12T03:08:34.738Z,2.37
2019-02-12T03:11:37.798Z,2.47
2019-02-12T03:14:40.927Z,2.51
2019-02-12T03:17:44.259Z,2.49
2019-02-12T03:20:47.400Z,2.57
2019-02-12T03:23:50.491Z,2.68
2019-02-12T03:26:53.591Z,2.70
2019-02-12T03:29:56.664Z,2.74
2019-02-12T03:32:59.769Z,2.75
2019-02-12T03:36:02.880Z,2.82
2019-02-12T03:39:06.141Z,2.88
2019-02-12T03:42:09.228Z,2.94
2019-02-12T03:45:12.360Z,3.02
2019-02-12T03:48:15.431Z,2.92
2019-02-12T03:51:18.511Z,2.92
2019-02-12T03:54:21.633Z,2.87
2019-02-12T03:57:24.703Z,2.90
2019-02-12T04:00:27.800Z,2.91
2019-02-12T04:03:30.897Z,2.93
2019-02-12T04:06:33.987Z,2.99
2019-02-12T04:09:37.084Z,2.98
2019-02-12T04:12:40.185Z,3.02
2019-02-12T04:15:43.262Z,3.03
2019-02-12T04:18:46.353Z,3.04
2019-02-12T04:21:49.437Z,3.04
2019-02-12T04:24:52.527Z,3.00
2019-02-12T04:27:55.778Z,2.94
2019-02-12T04:30:58.733Z,2.97
2019-02-12T04:34:01.927Z,2.96
2019-02-12T04:37:05.122Z,2.88
2019-02-12T04:40:08.828Z,2.82
2019-02-12T04:43:11.912Z,2.79
2019-02-12T04:46:15.020Z,2.84
2019-02-12T04:49:18.200Z,2.86
2019-02-12T04:52:21.268Z,2.86
2019-02-12T04:55:24.371Z,2.73
2019-02-12T04:58:27.460Z,2.69
2019-02-12T05:01:30.556Z,2.74
2019-02-12T05:04:33.656Z,2.70
2019-02-12T05:07:36.748Z,2.57
2019-02-12T05:10:43.689Z,2.42
2019-02-12T05:13:46.824Z,2.32
2019-02-12T05:16:49.903Z,2.36
2019-02-12T05:19:53.002Z,2.51
2019-02-12T05:22:56.093Z,2.40
2019-02-12T05:25:59.166Z,2.42
2019-02-12T05:29:02.266Z,2.44
2019-02-12T05:32:05.355Z,2.44
2019-02-12T05:35:08.424Z,2.45
2019-02-12T05:38:11.553Z,2.33
2019-02-12T05:41:14.645Z,2.37
2019-02-12T05:44:17.758Z,2.39
2019-02-12T05:47:20.824Z,2.31
2019-02-12T05:50:23.935Z,2.38
2019-02-12T05:53:27.012Z,2.39
2019-02-12T05:56:30.104Z,2.39
2019-02-12T05:59:33.210Z,2.30
2019-02-12T06:02:36.388Z,2.27
2019-02-12T06:05:39.521Z,2.23
2019-02-12T06:08:42.673Z,2.14
2019-02-12T06:11:45.775Z,2.11
2019-02-12T06:14:48.851Z,2.13
2019-02-12T06:17:51.951Z,2.23
2019-02-12T06:20:55.025Z,2.32
2019-02-12T06:23:58.442Z,2.38
2019-02-12T06:27:01.516Z,2.42
2019-02-12T06:30:04.797Z,2.44
2019-02-12T06:33:07.989Z,2.29
2019-02-12T06:36:10.958Z,2.28
2019-02-12T06:39:14.016Z,2.26
2019-02-12T06:42:17.088Z,2.26
2019-02-12T06:45:20.196Z,2.11
2019-02-12T06:48:23.285Z,2.12
2019-02-12T06:51:26.376Z,2.02
2019-02-12T06:54:29.459Z,2.04
2019-02-12T06:57:32.572Z,2.03
2019-02-12T07:00:35.852Z,2.05
2019-02-12T07:03:54.309Z,2.14
2019-02-12T07:07:23.044Z,2.15
2019-02-12T07:10:30.716Z,2.22
2019-02-12T07:13:41.520Z,2.28
2019-02-12T07:19:10.621Z,2.28
2019-02-12T07:23:39.703Z,2.40
2019-02-12T07:27:05.541Z,2.53
2019-02-12T07:30:22.808Z,2.59
2019-02-12T07:33:35.876Z,2.54
2019-02-12T07:37:00.588Z,2.48
2019-02-12T07:40:15.542Z,2.49
2019-02-12T07:44:28.835Z,2.52
2019-02-12T07:47:44.812Z,2.49
2019-02-12T07:50:56.393Z,2.58
2019-02-12T07:56:14.175Z,2.50
2019-02-12T07:59:58.949Z,2.47
2019-02-12T08:04:15.864Z,2.59
2019-02-12T08:07:29.761Z,2.63
2019-02-12T08:10:52.194Z,2.66
2019-02-12T08:14:08.957Z,2.81
2019-02-12T08:17:41.211Z,2.78
2019-02-12T08:22:56.012Z,2.88
2019-02-12T08:26:13.856Z,2.99
2019-02-12T08:30:29.247Z,3.07
2019-02-12T08:34:51.111Z,3.07
2019-02-12T08:40:05.852Z,3.10
2019-02-12T08:43:22.395Z,3.19
2019-02-12T08:46:36.709Z,3.24
2019-02-12T08:49:50.660Z,3.26
2019-02-12T08:53:02.448Z,3.38
2019-02-12T08:58:17.856Z,3.31
2019-02-12T09:03:50.044Z,3.48
2019-02-12T09:07:08.872Z,3.55
2019-02-12T09:10:24.977Z,3.59
2019-02-12T09:13:45.059Z,3.67
2019-02-12T09:18:59.714Z,3.62
2019-02-12T09:24:19.090Z,3.67
2019-02-12T09:27:33.846Z,3.74
2019-02-12T09:30:50.856Z,3.86
2019-02-12T09:34:05.861Z,3.90
2019-02-12T09:37:20.335Z,3.92
2019-02-12T09:40:34.803Z,3.98
2019-02-12T09:43:56.600Z,4.10
2019-02-12T09:47:33.601Z,4.02
2019-02-12T09:50:54.677Z,4.04
2019-02-12T09:54:10.651Z,4.12
2019-02-12T09:59:26.825Z,4.19
2019-02-12T10:02:40.808Z,4.56
2019-02-12T10:07:59.688Z,4.60
2019-02-12T10:11:27.459Z,4.78
2019-02-12T10:14:40.456Z,4.87
2019-02-12T10:17:53.795Z,4.89
2019-02-12T10:21:06.033Z,4.95
2019-02-12T10:24:24.244Z,4.86
2019-02-12T10:29:47.339Z,4.93
2019-02-12T10:32:50.504Z,5.03
2019-02-12T10:35:53.674Z,5.17
2019-02-12T10:38:56.764Z,5.44
2019-02-12T10:41:59.853Z,5.51
2019-02-12T10:45:02.958Z,5.50
2019-02-12T10:48:06.044Z,5.58
2019-02-12T10:51:09.148Z,5.83
2019-02-12T10:54:13.575Z,6.03
2019-02-12T10:57:15.527Z,6.09
2019-02-12T11:00:18.603Z,6.04
2019-02-12T11:03:21.688Z,6.20
2019-02-12T11:06:24.804Z,6.32
2019-02-12T11:09:27.986Z,6.32
2019-02-12T11:12:31.084Z,6.43
2019-02-12T11:15:34.169Z,6.36
2019-02-12T11:18:37.255Z,6.26
2019-02-12T11:21:40.348Z,6.31
2019-02-12T11:24:43.441Z,6.35
2019-02-12T11:27:46.536Z,6.39
2019-02-12T11:30:49.636Z,6.35
2019-02-12T11:33:52.715Z,6.44
2019-02-12T11:36:55.800Z,6.53
2019-02-12T11:39:58.891Z,6.61
2019-02-12T11:43:01.983Z,6.52
2019-02-12T11:46:05.085Z,6.33
2019-02-12T11:49:08.164Z,6.39
2019-02-12T11:52:11.269Z,6.36
2019-02-12T11:55:14.392Z,6.41
2019-02-12T11:58:17.556Z,6.39
2019-02-12T12:01:23.136Z,6.36
2019-02-12T12:04:26.204Z,6.38
2019-02-12T12:07:29.264Z,6.39
2019-02-12T12:10:32.330Z,6.55
2019-02-12T12:13:35.487Z,6.61
2019-02-12T12:16:38.560Z,6.57
2019-02-12T12:19:41.656Z,6.70
2019-02-12T12:22:44.762Z,6.90
2019-02-12T12:25:47.848Z,6.85
2019-02-12T12:28:50.942Z,6.80
2019-02-12T12:31:54.047Z,6.74
2019-02-12T12:34:59.095Z,6.82
2019-02-12T12:38:00.329Z,6.85
2019-02-12T12:41:04.438Z,6.89
2019-02-12T12:44:07.561Z,6.94
2019-02-12T12:47:10.762Z,7.13
2019-02-12T12:50:13.914Z,7.16
2019-02-12T12:53:17.000Z,7.08
2019-02-12T12:56:20.119Z,7.26
2019-02-12T12:59:23.187Z,7.32
2019-02-12T13:02:26.280Z,7.33
2019-02-12T13:05:29.371Z,7.63
2019-02-12T13:08:32.459Z,7.50
2019-02-12T13:11:35.562Z,7.76
2019-02-12T13:14:38.648Z,7.88
2019-02-12T13:17:41.752Z,7.78
2019-02-12T13:20:44.844Z,7.88
2019-02-12T13:23:47.913Z,7.88
2019-02-12T13:26:50.991Z,7.86
2019-02-12T13:29:54.128Z,7.93
2019-02-12T13:32:57.312Z,8.19
2019-02-12T13:36:00.460Z,8.25
2019-02-12T13:39:05.297Z,8.22
2019-02-12T13:42:08.365Z,8.41
2019-02-12T13:45:12.761Z,8.57
2019-02-12T13:48:15.935Z,8.52
2019-02-12T13:51:19.034Z,8.21
2019-02-12T13:54:22.130Z,7.90
2019-02-12T13:57:25.218Z,8.04
2019-02-12T14:00:28.279Z,8.34
2019-02-12T14:03:31.456Z,8.77
2019-02-12T14:06:34.498Z,8.18
2019-02-12T14:09:37.587Z,7.99
2019-02-12T14:12:40.685Z,7.95
2019-02-12T14:15:43.772Z,7.97
2019-02-12T14:18:46.824Z,8.25
2019-02-12T14:21:49.895Z,8.75
2019-02-12T14:24:53.063Z,8.88
2019-02-12T14:27:56.255Z,9.19
2019-02-12T14:30:59.440Z,9.29
2019-02-12T14:34:02.572Z,9.16
2019-02-12T14:37:05.714Z,8.99
2019-02-12T14:40:09.744Z,8.99
2019-02-12T14:43:14.377Z,8.71
2019-02-12T14:46:15.879Z,8.65
2019-02-12T14:49:19.035Z,8.38
2019-02-12T14:52:22.212Z,8.22
2019-02-12T14:55:33.347Z,8.10
2019-02-12T14:58:28.585Z,8.11
2019-02-12T15:01:36.484Z,8.01
2019-02-12T15:04:39.598Z,8.04
2019-02-12T15:07:42.719Z,8.18
2019-02-12T15:10:45.815Z,8.17
2019-02-12T15:13:48.983Z,8.22
2019-02-12T15:16:52.178Z,8.25
2019-02-12T15:19:55.361Z,8.14
2019-02-12T15:22:58.484Z,8.07
2019-02-12T15:26:01.661Z,8.08
2019-02-12T15:29:04.850Z,8.19
2019-02-12T15:32:07.910Z,8.18
2019-02-12T15:35:11.048Z,8.01
2019-02-12T15:38:14.123Z,8.05
2019-02-12T15:41:17.224Z,8.09
2019-02-12T15:44:20.334Z,8.03
2019-02-12T15:47:23.532Z,7.90
2019-02-12T15:50:26.699Z,7.83
2019-02-12T15:53:29.795Z,7.71
2019-02-12T15:56:32.891Z,7.59
2019-02-12T15:59:36.111Z,7.55
2019-02-12T16:02:39.472Z,7.50
2019-02-12T16:05:42.563Z,7.48
2019-02-12T16:08:45.679Z,7.47
2019-02-12T16:11:48.860Z,7.40
2019-02-12T16:14:53.060Z,7.38
2019-02-12T16:17:55.028Z,7.36
2019-02-12T16:20:58.133Z,7.40
2019-02-12T16:24:01.231Z,7.29
2019-02-12T16:27:04.303Z,7.18
2019-02-12T16:30:10.286Z,7.09
2019-02-12T16:33:13.420Z,7.20
2019-02-12T16:36:16.564Z,7.05
2019-02-12T16:39:19.659Z,6.96
2019-02-12T16:42:22.761Z,6.88
2019-02-12T16:45:29.780Z,6.95
2019-02-12T16:48:32.907Z,6.80
2019-02-12T16:51:35.995Z,6.71
2019-02-12T16:54:39.102Z,6.71
2019-02-12T16:57:42.307Z,6.69
2019-02-12T17:00:45.505Z,6.60
2019-02-12T17:03:48.596Z,6.57
2019-02-12T17:06:51.671Z,6.70
2019-02-12T17:09:54.780Z,6.61
2019-02-12T17:12:57.894Z,6.62
2019-02-12T17:16:00.964Z,6.63
2019-02-12T17:19:04.792Z,6.56
2019-02-12T17:22:07.968Z,6.60
2019-02-12T17:25:11.206Z,6.59
2019-02-12T17:28:14.361Z,6.55
2019-02-12T17:31:17.552Z,6.60
2019-02-12T17:34:20.739Z,6.48
2019-02-12T17:37:23.835Z,6.43
2019-02-12T17:40:26.921Z,6.40
2019-02-12T17:43:30.003Z,6.32
2019-02-12T17:46:33.073Z,6.34
2019-02-12T17:49:36.154Z,6.35
2019-02-12T17:52:39.324Z,6.33
2019-02-12T17:55:42.488Z,6.24
2019-02-12T17:58:45.604Z,6.18
2019-02-12T18:01:48.771Z,6.07
2019-02-12T18:04:51.871Z,6.09
2019-02-12T18:07:54.956Z,6.10
2019-02-12T18:10:58.080Z,6.10
2019-02-12T18:14:01.237Z,6.13
2019-02-12T18:17:04.385Z,6.03
2019-02-12T18:20:08.079Z,5.93
2019-02-12T18:23:11.226Z,5.91
2019-02-12T18:26:14.313Z,5.91
2019-02-12T18:29:17.412Z,5.80
2019-02-12T18:32:20.594Z,5.78
2019-02-12T18:35:23.759Z,5.73
2019-02-12T18:38:26.893Z,5.71
2019-02-12T18:41:30.015Z,5.72
2019-02-12T18:44:33.100Z,5.67
2019-02-12T18:47:36.193Z,5.61
2019-02-12T18:50:39.390Z,5.59
2019-02-12T18:53:42.580Z,5.57
2019-02-12T18:56:45.687Z,5.51
2019-02-12T18:59:48.757Z,5.34
2019-02-12T19:02:52.596Z,5.27
2019-02-12T19:05:55.779Z,5.29
2019-02-12T19:08:58.956Z,5.39
2019-02-12T19:12:02.099Z,5.29
2019-02-12T19:15:05.661Z,5.36
2019-02-12T19:18:12.692Z,5.23
2019-02-12T19:21:15.792Z,5.20
2019-02-12T19:24:19.020Z,5.19
2019-02-12T19:27:22.106Z,5.16
2019-02-12T19:30:25.231Z,5.12
2019-02-12T19:33:28.303Z,5.08
2019-02-12T19:36:31.552Z,5.08
2019-02-12T19:39:34.705Z,4.99
2019-02-12T19:42:37.955Z,4.85
2019-02-12T19:45:41.091Z,4.86
2019-02-12T19:48:44.327Z,4.83
2019-02-12T19:51:47.485Z,4.91
2019-02-12T19:54:50.656Z,4.90
2019-02-12T19:57:53.775Z,4.83
2019-02-12T20:00:56.948Z,4.82
2019-02-12T20:04:00.163Z,4.79
2019-02-12T20:07:03.412Z,4.76
2019-02-12T20:10:07.124Z,4.72
2019-02-12T20:13:10.262Z,4.70
2019-02-12T20:16:13.429Z,4.65
2019-02-12T20:19:16.559Z,4.53
2019-02-12T20:22:19.716Z,4.44
2019-02-12T20:25:22.823Z,4.39
2019-02-12T20:28:26.015Z,4.35
2019-02-12T20:31:29.203Z,4.36
2019-02-12T20:34:32.379Z,4.37
2019-02-12T20:37:35.452Z,4.31
2019-02-12T20:40:38.532Z,4.26
2019-02-12T20:43:41.692Z,4.13
2019-02-12T20:46:44.937Z,4.03
2019-02-12T20:49:48.080Z,3.92
2019-02-12T20:52:51.303Z,3.74
2019-02-12T20:55:54.448Z,3.73
2019-02-12T20:58:57.643Z,3.69
2019-02-12T21:02:00.848Z,3.71
2019-02-12T21:05:04.035Z,3.73
2019-02-12T21:08:07.295Z,3.74
2019-02-12T21:11:10.370Z,3.56
2019-02-12T21:14:13.555Z,3.32
2019-02-12T21:17:16.747Z,3.30
2019-02-12T21:20:19.904Z,3.31
2019-02-12T21:23:22.981Z,3.33
2019-02-12T21:26:26.120Z,3.13
2019-02-12T21:29:29.274Z,3.01
2019-02-12T21:32:32.365Z,3.04
2019-02-12T21:35:35.476Z,3.05
2019-02-12T21:38:38.675Z,3.11
2019-02-12T21:41:41.862Z,3.15
2019-02-12T21:44:45.073Z,3.16
2019-02-12T21:47:48.185Z,2.91
2019-02-12T21:50:51.339Z,2.65
2019-02-12T21:53:54.425Z,2.58
2019-02-12T21:56:57.520Z,2.66
2019-02-12T22:00:00.730Z,2.76
2019-02-12T22:03:03.907Z,2.75
2019-02-12T22:06:07.007Z,2.74
2019-02-12T22:09:10.196Z,2.67
2019-02-12T22:12:13.396Z,2.41
2019-02-12T22:15:16.593Z,2.35
2019-02-12T22:18:19.764Z,2.37
2019-02-12T22:21:22.875Z,2.39
2019-02-12T22:24:26.253Z,2.32
2019-02-12T22:27:29.388Z,2.40
2019-02-12T22:30:32.510Z,2.43
2019-02-12T22:33:35.639Z,2.26
2019-02-12T22:36:38.747Z,2.14
2019-02-12T22:39:41.925Z,2.11
2019-02-12T22:42:45.943Z,2.05
2019-02-12T22:45:49.159Z,1.98
2019-02-12T22:48:52.353Z,2.01
2019-02-12T22:51:55.540Z,2.10
2019-02-12T22:54:58.722Z,2.04
2019-02-12T22:58:01.829Z,1.99
2019-02-12T23:01:08.698Z,1.97
2019-02-12T23:04:11.799Z,1.82
2019-02-12T23:07:14.984Z,1.82
2019-02-12T23:10:18.076Z,1.80
2019-02-12T23:13:21.156Z,1.78
2019-02-12T23:16:24.337Z,1.65
2019-02-12T23:19:27.492Z,1.65
2019-02-12T23:22:30.641Z,1.58
2019-02-12T23:25:33.745Z,1.54
2019-02-12T23:28:36.939Z,1.65
2019-02-12T23:31:40.156Z,1.73
2019-02-12T23:34:43.309Z,1.70
2019-02-12T23:37:46.426Z,1.64
2019-02-12T23:40:49.707Z,1.68
2019-02-12T23:43:52.946Z,1.73
2019-02-12T23:46:56.194Z,1.65
2019-02-12T23:49:59.312Z,1.36
2019-02-12T23:53:02.387Z,1.25
2019-02-12T23:56:05.585Z,1.25
2019-02-12T23:59:08.665Z,1.27
